Time;durP1;ratioP1;P1;durP2;ratioP2;P2;SDS_P1;SDS_P2;PMS_P1;PMS_P2;Temp;Humidity;BMP_temperature;BMP_pressure;BME280_temperature;BME280_humidity;BME280_pressure;Samples;Min_cycle;Max_cycle;Signal;HPM_P1;HPM_P2
2021/05/29 00:02:24;;;;;;;9.20;8.50;;;;;;;7.24;100.00;98596.56;4982609;28;20509;-71
2021/05/29 00:04:52;;;;;;;7.47;6.77;;;;;;;7.18;100.00;98597.91;4976691;28;20591;-71
2021/05/29 00:07:19;;;;;;;7.43;6.83;;;;;;;7.08;100.00;98586.44;4982881;28;20214;-71
2021/05/29 00:09:48;;;;;;;6.93;6.43;;;;;;;7.08;100.00;98592.53;4981806;28;20338;-70
2021/05/29 00:12:15;;;;;;;11.23;10.53;;;;;;;7.00;100.00;98592.34;4980699;28;20624;-70
2021/05/29 00:14:46;;;;;;;7.23;6.67;;;;;;;7.00;100.00;98592.34;4980709;28;20737;-70
2021/05/29 00:17:14;;;;;;;7.50;6.20;;;;;;;7.00;100.00;98587.06;4980136;28;20194;-70
2021/05/29 00:19:42;;;;;;;8.43;7.83;;;;;;;6.94;100.00;98583.13;4981503;28;20220;-72
2021/05/29 00:22:09;;;;;;;7.20;6.53;;;;;;;6.96;100.00;98580.38;4979348;28;20214;-71
2021/05/29 00:24:37;;;;;;;5.77;5.27;;;;;;;7.03;100.00;98578.91;4979722;28;20704;-71
2021/05/29 00:27:06;;;;;;;7.33;6.83;;;;;;;7.05;100.00;98582.25;4980935;28;20217;-71
2021/05/29 00:29:34;;;;;;;6.37;5.97;;;;;;;6.90;100.00;98579.09;4981893;28;20209;-71
2021/05/29 00:32:01;;;;;;;7.50;6.90;;;;;;;6.75;100.00;98585.63;4982794;28;20224;-71
2021/05/29 00:34:29;;;;;;;7.00;6.50;;;;;;;6.66;100.00;98579.28;4980277;28;20237;-71
2021/05/29 00:36:56;;;;;;;7.03;6.53;;;;;;;6.63;100.00;98582.19;4981845;28;20724;-71
2021/05/29 00:39:24;;;;;;;7.30;6.70;;;;;;;6.69;100.00;98580.84;4982065;28;20217;-71
2021/05/29 00:41:51;;;;;;;6.63;6.13;;;;;;;6.78;100.00;98580.09;4983479;28;20210;-71
2021/05/29 00:44:19;;;;;;;6.23;5.73;;;;;;;6.83;100.00;98569.19;4982305;28;20232;-71
2021/05/29 00:46:47;;;;;;;6.17;5.77;;;;;;;6.72;100.00;98580.59;4981285;28;20209;-71
2021/05/29 00:49:14;;;;;;;6.20;5.80;;;;;;;6.65;100.00;98575.84;4979969;28;20206;-70
2021/05/29 00:51:42;;;;;;;6.17;5.63;;;;;;;6.71;100.00;98571.03;4982159;28;20406;-71
2021/05/29 00:54:11;;;;;;;10.40;9.60;;;;;;;6.54;100.00;98570.59;4981741;28;20256;-71
2021/05/29 00:56:38;;;;;;;8.30;7.70;;;;;;;6.44;100.00;98567.03;4982368;28;20216;-71
2021/05/29 00:59:09;;;;;;;6.27;5.67;;;;;;;6.43;100.00;98568.00;4982033;28;20206;-71
2021/05/29 01:01:37;;;;;;;10.17;9.37;;;;;;;6.44;100.00;98567.03;4979170;28;20382;-71
2021/05/29 01:04:05;;;;;;;6.87;6.37;;;;;;;6.46;100.00;98568.59;4980344;28;20541;-69
2021/05/29 01:06:32;;;;;;;6.90;6.40;;;;;;;6.27;100.00;98578.91;4980738;28;20220;-70
2021/05/29 01:09:00;;;;;;;5.87;5.47;;;;;;;6.26;100.00;98580.72;4977751;28;20209;-69
2021/05/29 01:11:27;;;;;;;5.77;5.20;;;;;;;6.32;100.00;98574.97;4980691;28;20206;-71
2021/05/29 01:13:58;;;;;;;8.17;7.57;;;;;;;6.17;100.00;98578.78;4982602;28;20236;-71
2021/05/29 01:16:43;;;;;;;10.63;9.83;;;;;;;6.18;100.00;98568.16;4982551;28;20709;-71
2021/05/29 01:19:12;;;;;;;6.13;5.63;;;;;;;6.26;100.00;98562.28;4981318;28;20209;-71
2021/05/29 01:21:40;;;;;;;6.30;5.80;;;;;;;6.18;100.00;98562.03;4982028;28;20210;-71
2021/05/29 01:24:09;;;;;;;6.07;5.67;;;;;;;5.97;100.00;98565.41;4979080;28;20251;-71
2021/05/29 01:26:36;;;;;;;9.67;8.97;;;;;;;5.88;100.00;98569.59;4982231;28;20205;-71
2021/05/29 01:29:04;;;;;;;8.13;7.53;;;;;;;5.84;100.00;98568.16;4981958;28;21000;-71
2021/05/29 01:31:33;;;;;;;8.83;7.90;;;;;;;5.78;100.00;98566.81;4980910;28;20429;-70
2021/05/29 01:34:02;;;;;;;7.27;6.77;;;;;;;5.74;100.00;98569.84;4982255;28;20285;-70
2021/05/29 01:36:30;;;;;;;8.43;7.93;;;;;;;5.69;100.00;98564.91;4980084;28;20632;-71
2021/05/29 01:38:57;;;;;;;8.60;8.00;;;;;;;5.62;100.00;98567.16;4979657;28;20209;-71
2021/05/29 01:41:26;;;;;;;6.83;6.33;;;;;;;5.58;100.00;98570.19;4981203;28;20697;-70
2021/05/29 01:43:53;;;;;;;6.13;5.63;;;;;;;5.56;100.00;98564.19;4980370;28;20253;-70
2021/05/29 01:46:23;;;;;;;5.97;5.57;;;;;;;5.59;100.00;98564.78;4981019;28;20453;-71
2021/05/29 01:48:51;;;;;;;5.87;5.40;;;;;;;5.56;100.00;98572.09;4980934;28;20214;-71
2021/05/29 01:51:22;;;;;;;8.90;8.10;;;;;;;5.42;100.00;98567.88;4981740;28;20210;-71
2021/05/29 01:53:50;;;;;;;6.97;6.47;;;;;;;5.32;100.00;98568.59;4979540;28;20238;-71
2021/05/29 01:56:18;;;;;;;8.30;7.70;;;;;;;5.33;100.00;98565.00;4979393;28;20225;-71
2021/05/29 01:58:46;;;;;;;17.77;16.17;;;;;;;5.27;100.00;98557.56;4982448;28;20633;-69
2021/05/29 02:01:15;;;;;;;8.60;7.90;;;;;;;5.32;100.00;98552.81;4980110;28;20222;-69
2021/05/29 02:03:45;;;;;;;6.93;6.43;;;;;;;5.20;100.00;98559.84;4984076;28;20226;-70
2021/05/29 02:06:13;;;;;;;8.43;7.73;;;;;;;5.15;100.00;98561.13;4980785;28;20585;-70
2021/05/29 02:08:41;;;;;;;10.37;9.43;;;;;;;5.25;100.00;98558.66;4984982;28;20201;-70
2021/05/29 02:11:08;;;;;;;8.23;7.53;;;;;;;5.13;100.00;98555.16;4985520;28;20205;-70
2021/05/29 02:13:37;;;;;;;7.50;6.53;;;;;;;5.19;100.00;98558.16;4983247;28;20229;-71
2021/05/29 02:16:08;;;;;;;6.93;6.33;;;;;;;5.18;100.00;98551.22;4985535;28;20622;-70
2021/05/29 02:18:37;;;;;;;7.73;5.83;;;;;;;5.30;100.00;98561.75;4983904;28;20209;-70
2021/05/29 02:21:06;;;;;;;7.17;6.60;;;;;;;5.48;100.00;98568.22;4984904;28;20213;-69
2021/05/29 02:23:36;;;;;;;7.60;6.90;;;;;;;5.59;100.00;98571.84;4982714;28;20811;-71
2021/05/29 02:26:04;;;;;;;6.73;6.13;;;;;;;5.53;100.00;98574.94;4985469;28;20249;-71
2021/05/29 02:28:33;;;;;;;7.70;7.10;;;;;;;5.41;100.00;98579.34;4983965;28;20217;-70
2021/05/29 02:31:01;;;;;;;7.50;6.83;;;;;;;5.50;100.00;98576.00;4981280;28;20772;-71
2021/05/29 02:33:30;;;;;;;7.10;6.60;;;;;;;5.44;100.00;98582.56;4982147;28;20229;-70
2021/05/29 02:35:58;;;;;;;7.13;6.63;;;;;;;5.50;100.00;98576.00;4984732;28;20240;-70
2021/05/29 02:38:26;;;;;;;7.60;7.00;;;;;;;5.40;100.00;98567.97;4983839;28;20222;-71
2021/05/29 02:40:54;;;;;;;7.63;7.03;;;;;;;5.26;100.00;98573.47;4984797;28;20698;-71
2021/05/29 02:43:22;;;;;;;8.27;7.57;;;;;;;5.34;100.00;98573.72;4982260;28;20451;-70
2021/05/29 02:45:49;;;;;;;7.10;6.40;;;;;;;5.28;100.00;98579.44;4984841;28;20205;-70
2021/05/29 02:48:17;;;;;;;7.47;6.87;;;;;;;5.25;100.00;98587.56;4982848;28;20221;-70
2021/05/29 02:50:45;;;;;;;8.27;7.57;;;;;;;5.28;100.00;98582.88;4983190;28;20212;-71
2021/05/29 02:53:15;;;;;;;8.07;7.37;;;;;;;5.26;100.00;98579.53;4983475;28;20234;-69
2021/05/29 02:55:43;;;;;;;7.30;6.70;;;;;;;5.28;100.00;98580.25;4984257;28;20226;-71
2021/05/29 02:58:11;;;;;;;6.80;6.40;;;;;;;5.16;100.00;98579.41;4984245;28;20210;-71
2021/05/29 03:00:42;;;;;;;7.90;7.13;;;;;;;5.10;100.00;98584.28;4984008;28;20221;-71
2021/05/29 03:03:10;;;;;;;6.93;6.43;;;;;;;4.95;100.00;98578.38;4984172;28;20237;-72
2021/05/29 03:05:39;;;;;;;6.83;6.33;;;;;;;5.03;100.00;98583.88;4984264;28;20205;-70
2021/05/29 03:08:09;;;;;;;6.87;6.37;;;;;;;5.04;100.00;98590.81;4984126;28;20282;-71
2021/05/29 03:10:36;;;;;;;6.40;5.90;;;;;;;4.83;100.00;98588.84;4984691;28;20288;-70
2021/05/29 03:13:06;;;;;;;7.60;7.10;;;;;;;4.72;100.00;98584.38;4984598;28;20269;-71
2021/05/29 03:15:35;;;;;;;7.17;6.67;;;;;;;4.67;100.00;98589.13;4980891;28;20265;-71
2021/05/29 03:18:06;;;;;;;7.03;6.50;;;;;;;4.69;100.00;98589.84;4984890;28;20236;-70
2021/05/29 03:20:35;;;;;;;7.37;6.63;;;;;;;4.66;100.00;98579.56;4982550;28;20629;-71
2021/05/29 03:23:03;;;;;;;6.70;6.00;;;;;;;4.64;100.00;98582.31;4982274;28;20321;-71
2021/05/29 03:25:31;;;;;;;6.73;6.20;;;;;;;4.90;100.00;98579.56;4983016;28;20210;-71
2021/05/29 03:27:59;;;;;;;7.00;6.50;;;;;;;4.76;100.00;98593.69;4984276;28;20214;-71
2021/05/29 03:30:31;;;;;;;6.63;6.17;;;;;;;4.62;100.00;98586.00;4983645;28;20256;-71
2021/05/29 03:33:01;;;;;;;6.47;5.97;;;;;;;4.59;100.00;98589.69;4984027;28;20667;-70
2021/05/29 03:35:29;;;;;;;7.47;6.73;;;;;;;4.58;100.00;98587.19;4981327;28;20229;-71
2021/05/29 03:37:57;;;;;;;7.23;6.67;;;;;;;4.58;100.00;98587.19;4981661;28;20238;-71
2021/05/29 03:40:25;;;;;;;7.00;6.40;;;;;;;4.59;100.00;98584.44;4982519;28;20212;-71
2021/05/29 03:42:54;;;;;;;6.90;6.30;;;;;;;4.49;100.00;98591.28;4982975;28;20781;-70
2021/05/29 03:45:23;;;;;;;6.43;5.93;;;;;;;4.44;100.00;98598.66;4982951;28;20202;-71
2021/05/29 03:47:51;;;;;;;6.43;5.83;;;;;;;4.41;100.00;98593.63;4983943;28;20276;-71
2021/05/29 03:50:21;;;;;;;7.17;6.57;;;;;;;4.40;100.00;98595.41;4979634;28;20548;-71
2021/05/29 03:52:48;;;;;;;6.77;6.27;;;;;;;4.44;100.00;98590.78;4983156;28;20623;-70
2021/05/29 03:55:17;;;;;;;6.57;6.07;;;;;;;4.46;100.00;98594.97;4980151;28;20226;-69
2021/05/29 03:57:45;;;;;;;7.17;6.67;;;;;;;4.39;100.00;98599.00;4982788;28;20783;-71
2021/05/29 04:00:17;;;;;;;6.53;6.07;;;;;;;4.34;100.00;98594.06;4981129;28;20205;-71
2021/05/29 04:02:45;;;;;;;7.63;6.50;;;;;;;4.39;100.00;98595.53;4983050;28;20292;-72
2021/05/29 04:05:14;;;;;;;6.87;6.37;;;;;;;4.37;100.00;98595.63;4980243;28;20751;-70
2021/05/29 04:07:41;;;;;;;6.50;5.73;;;;;;;4.35;100.00;98597.53;4983362;28;20237;-69
2021/05/29 04:10:10;;;;;;;6.17;5.57;;;;;;;4.37;100.00;98600.06;4984815;28;20661;-68
2021/05/29 04:12:38;;;;;;;6.83;6.33;;;;;;;4.36;100.00;98588.72;4982810;28;20201;-66
2021/05/29 04:15:10;;;;;;;6.10;5.67;;;;;;;4.48;100.00;98598.31;4981234;28;20237;-67
2021/05/29 04:17:39;;;;;;;6.57;6.00;;;;;;;4.84;100.00;98594.91;4981609;28;20281;-69
2021/05/29 04:20:08;;;;;;;6.37;5.77;;;;;;;5.10;100.00;98600.03;4982255;28;20212;-68
2021/05/29 04:22:36;;;;;;;7.40;6.80;;;;;;;5.01;100.00;98591.06;4982385;28;20292;-70
2021/05/29 04:25:06;;;;;;;6.73;6.23;;;;;;;5.06;100.00;98604.69;4982141;28;20206;-69
2021/05/29 04:27:34;;;;;;;6.57;6.07;;;;;;;5.26;100.00;98611.06;4981436;28;20226;-71
2021/05/29 04:30:01;;;;;;;6.47;5.97;;;;;;;5.32;100.00;98615.03;4963635;28;20206;-70
2021/05/29 04:32:29;;;;;;;6.93;6.33;;;;;;;5.39;100.00;98611.00;4965200;28;20214;-69
2021/05/29 04:34:57;;;;;;;7.90;7.30;;;;;;;5.31;100.00;98610.75;4966739;28;20281;-70
2021/05/29 04:37:25;;;;;;;6.63;6.23;;;;;;;5.26;100.00;98615.50;4967258;28;20213;-69
2021/05/29 04:39:53;;;;;;;7.40;6.80;;;;;;;5.26;100.00;98616.34;4963339;28;20214;-70
2021/05/29 04:42:20;;;;;;;6.97;6.47;;;;;;;5.39;100.00;98616.25;4963441;28;20836;-68
2021/05/29 04:44:48;;;;;;;7.20;6.60;;;;;;;5.36;100.00;98611.22;4963492;28;20248;-69
2021/05/29 04:47:16;;;;;;;6.70;6.30;;;;;;;5.73;100.00;98624.22;4961462;28;20217;-70
2021/05/29 04:49:43;;;;;;;6.63;6.03;;;;;;;6.00;100.00;98624.81;4959560;28;20434;-68
2021/05/29 04:52:12;;;;;;;6.90;6.30;;;;;;;5.95;100.00;98633.09;4959605;28;20215;-69
2021/05/29 04:54:39;;;;;;;7.80;6.40;;;;;;;6.12;100.00;98641.47;4963084;28;20255;-66
2021/05/29 04:57:07;;;;;;;6.93;6.33;;;;;;;6.06;100.00;98642.78;4963793;28;20245;-69
2021/05/29 04:59:35;;;;;;;7.03;6.43;;;;;;;6.12;100.00;98641.47;4961755;28;20209;-67
2021/05/29 05:02:03;;;;;;;7.23;6.73;;;;;;;6.29;100.00;98633.13;4968098;28;20218;-69
2021/05/29 05:04:30;;;;;;;6.60;6.20;;;;;;;6.26;100.00;98643.91;4962692;28;20608;-69
2021/05/29 05:06:58;;;;;;;6.53;6.13;;;;;;;6.44;100.00;98640.75;4967179;28;20232;-69
2021/05/29 05:09:26;;;;;;;7.87;7.37;;;;;;;6.50;100.00;98640.25;4961112;28;20794;-69
2021/05/29 05:11:57;;;;;;;7.20;6.70;;;;;;;6.63;100.00;98640.13;4961762;28;20742;-69
2021/05/29 05:14:25;;;;;;;7.33;6.73;;;;;;;6.82;100.00;98631.56;4963143;28;20960;-70
2021/05/29 05:16:52;;;;;;;7.47;6.77;;;;;;;7.02;100.00;98642.31;4964189;28;20237;-69
2021/05/29 05:19:20;;;;;;;6.97;6.43;;;;;;;7.23;100.00;98640.53;4966611;28;20209;-68
2021/05/29 05:21:47;;;;;;;7.93;7.33;;;;;;;7.26;100.00;98649.16;4956886;28;20363;-68
2021/05/29 05:24:14;;;;;;;6.67;6.10;;;;;;;7.50;100.00;98648.91;4958793;28;20233;-66
2021/05/29 05:26:43;;;;;;;7.20;6.70;;;;;;;7.71;100.00;98646.25;4964276;28;20214;-68
2021/05/29 05:29:11;;;;;;;6.97;6.37;;;;;;;7.93;100.00;98652.38;4965445;28;20213;-66
2021/05/29 05:31:39;;;;;;;6.73;6.13;;;;;;;8.07;98.70;98644.09;4962781;28;20207;-68
2021/05/29 05:34:09;;;;;;;7.17;6.47;;;;;;;8.24;97.63;98652.38;4964499;28;20312;-70
2021/05/29 05:36:37;;;;;;;6.13;5.63;;;;;;;8.15;98.12;98651.34;4963018;28;20237;-68
2021/05/29 05:39:06;;;;;;;7.17;6.63;;;;;;;8.25;98.42;98657.50;4970241;28;20210;-68
2021/05/29 05:41:33;;;;;;;6.13;5.73;;;;;;;8.39;97.12;98658.13;4965434;28;20206;-69
2021/05/29 05:44:01;;;;;;;6.13;5.53;;;;;;;8.32;98.97;98651.69;4961304;28;20718;-69
2021/05/29 05:46:29;;;;;;;6.50;6.00;;;;;;;8.47;96.06;98662.72;4964310;28;20203;-69
2021/05/29 05:48:56;;;;;;;6.20;5.70;;;;;;;8.39;96.25;98652.84;4960482;28;20859;-69
2021/05/29 05:51:26;;;;;;;6.60;6.10;;;;;;;8.43;96.03;98648.13;4963049;28;20686;-71
2021/05/29 05:53:53;;;;;;;6.70;6.10;;;;;;;8.37;96.97;98650.34;4963511;28;20319;-71
2021/05/29 05:56:26;;;;;;;6.37;5.87;;;;;;;8.35;95.98;98656.72;4968462;28;20226;-71
2021/05/29 05:58:55;;;;;;;6.67;6.23;;;;;;;8.61;95.17;98667.69;4971571;28;20297;-72
2021/05/29 06:01:25;;;;;;;6.13;5.63;;;;;;;8.59;95.36;98659.06;4967471;28;20233;-71
2021/05/29 06:03:53;;;;;;;5.73;5.33;;;;;;;8.66;95.83;98660.19;4968296;28;20238;-69
2021/05/29 06:06:20;;;;;;;5.90;5.50;;;;;;;8.73;94.60;98659.63;4963847;28;20226;-69
2021/05/29 06:08:48;;;;;;;6.00;5.60;;;;;;;8.79;93.73;98662.59;4961677;28;20217;-70
2021/05/29 06:11:15;;;;;;;6.07;5.43;;;;;;;8.90;93.63;98668.72;4968876;28;20214;-72
2021/05/29 06:19:24;;;;;;;6.20;5.60;;;;;;;9.18;92.70;98663.59;4963556;28;20206;-70
2021/05/29 06:21:53;;;;;;;6.43;5.97;;;;;;;9.06;92.65;98665.53;4968278;28;20210;-71
2021/05/29 06:24:22;;;;;;;7.43;5.43;;;;;;;9.05;92.53;98667.34;4964725;28;20218;-71
2021/05/29 06:26:50;;;;;;;6.47;5.87;;;;;;;9.19;91.98;98671.38;4967475;28;20206;-71
2021/05/29 06:29:18;;;;;;;6.30;5.90;;;;;;;9.46;90.59;98674.31;4967150;28;20450;-71
2021/05/29 06:31:47;;;;;;;6.73;6.20;;;;;;;9.69;88.48;98672.22;4965543;28;20206;-69
2021/05/29 06:34:14;;;;;;;6.53;6.00;;;;;;;9.64;88.95;98666.50;4966900;28;20226;-69
2021/05/29 06:36:42;;;;;;;5.53;5.07;;;;;;;9.81;84.75;98665.78;4965338;28;20599;-71
2021/05/29 06:39:10;;;;;;;6.00;5.60;;;;;;;9.68;85.74;98667.91;4965777;28;20229;-71
2021/05/29 06:41:40;;;;;;;5.87;5.27;;;;;;;9.96;84.20;98679.41;4963523;28;20225;-68
2021/05/29 06:44:07;;;;;;;4.97;4.60;;;;;;;10.33;82.66;98683.03;4964622;28;20234;-68
2021/05/29 06:46:35;;;;;;;5.23;4.83;;;;;;;10.31;81.92;98681.53;4964621;28;20229;-68
2021/05/29 06:49:04;;;;;;;6.37;5.87;;;;;;;10.57;80.17;98677.25;4964437;28;20213;-68
2021/05/29 06:51:36;;;;;;;5.67;5.10;;;;;;;10.60;79.41;98677.94;4965203;28;20210;-68
2021/05/29 06:54:07;;;;;;;4.67;4.37;;;;;;;10.65;78.62;98686.31;4961315;28;20234;-69
2021/05/29 06:59:21;;;;;;;5.40;5.00;;;;;;;10.69;78.73;98677.06;4959929;28;20214;-69
2021/05/29 07:01:48;;;;;;;5.07;4.67;;;;;;;10.84;77.05;98677.41;4962538;28;20271;-68
2021/05/29 07:04:18;;;;;;;5.53;5.13;;;;;;;10.81;77.01;98689.13;4962623;28;20608;-67
2021/05/29 07:06:45;;;;;;;5.53;5.20;;;;;;;10.89;76.34;98685.75;4957271;28;20203;-67
2021/05/29 07:09:15;;;;;;;5.13;4.83;;;;;;;11.11;76.38;98673.00;4963330;28;20217;-66
2021/05/29 07:11:42;;;;;;;5.33;4.90;;;;;;;10.96;77.31;98672.69;4963348;28;20214;-67
2021/05/29 07:14:10;;;;;;;4.80;4.40;;;;;;;11.06;76.91;98670.84;4967362;28;20226;-69
2021/05/29 07:16:48;;;;;;;5.13;4.73;;;;;;;11.35;74.59;98674.25;4964929;28;20226;-68
2021/05/29 07:19:15;;;;;;;5.10;4.80;;;;;;;11.42;72.94;98670.84;4965437;28;20584;-66
2021/05/29 07:21:44;;;;;;;4.73;4.33;;;;;;;11.46;72.32;98671.34;4966185;28;20210;-68
2021/05/29 07:24:12;;;;;;;6.10;4.80;;;;;;;11.52;71.40;98668.06;4965010;28;20222;-66
2021/05/29 07:26:40;;;;;;;6.33;3.97;;;;;;;11.69;70.05;98671.69;4962575;28;20674;-66
2021/05/29 07:29:07;;;;;;;4.30;4.00;;;;;;;11.70;70.19;98675.19;4968049;28;20213;-67
2021/05/29 07:31:35;;;;;;;3.83;3.63;;;;;;;11.72;69.54;98667.91;4965821;28;20210;-68
2021/05/29 07:34:03;;;;;;;3.33;3.13;;;;;;;11.91;66.36;98668.69;4961850;28;21034;-67
2021/05/29 07:36:31;;;;;;;6.07;3.77;;;;;;;11.97;66.56;98668.09;4966525;28;20800;-68
2021/05/29 07:38:59;;;;;;;3.70;3.20;;;;;;;12.06;66.64;98669.81;4961007;28;20606;-68
2021/05/29 07:41:27;;;;;;;5.03;3.83;;;;;;;12.05;68.82;98676.13;4963298;28;20386;-67
2021/05/29 07:43:54;;;;;;;4.70;4.30;;;;;;;12.22;66.59;98670.91;4958589;28;20237;-67
2021/05/29 07:46:22;;;;;;;5.07;4.57;;;;;;;12.34;67.21;98671.47;4962085;28;20229;-69
2021/05/29 07:48:51;;;;;;;5.07;4.60;;;;;;;12.53;67.11;98675.69;4969796;28;20209;-68
2021/05/29 07:51:18;;;;;;;4.77;3.83;;;;;;;12.50;66.68;98671.56;4963045;28;20616;-66
2021/05/29 07:53:46;;;;;;;4.43;3.90;;;;;;;12.48;66.02;98673.50;4963870;28;20390;-69
2021/05/29 07:56:15;;;;;;;4.30;4.00;;;;;;;12.47;66.57;98669.19;4963141;28;20236;-68
2021/05/29 07:58:43;;;;;;;4.50;4.20;;;;;;;12.60;65.14;98674.06;4962717;28;20244;-66
2021/05/29 08:01:11;;;;;;;4.53;4.07;;;;;;;12.48;65.75;98672.69;4963019;28;20206;-69
2021/05/29 08:03:39;;;;;;;4.17;3.87;;;;;;;12.60;65.21;98666.09;4961512;28;20324;-67
2021/05/29 08:06:09;;;;;;;3.73;3.43;;;;;;;12.70;66.92;98672.13;4963102;28;20574;-68
2021/05/29 08:08:36;;;;;;;3.43;3.20;;;;;;;12.91;65.32;98668.19;4963001;28;20385;-68
2021/05/29 08:11:04;;;;;;;3.30;3.10;;;;;;;12.96;65.30;98671.19;4963359;28;20214;-69
2021/05/29 08:13:32;;;;;;;3.47;3.27;;;;;;;13.05;66.60;98668.53;4962965;28;20713;-69
2021/05/29 08:16:00;;;;;;;3.60;3.40;;;;;;;13.39;65.41;98664.91;4963356;28;20358;-69
2021/05/29 08:18:27;;;;;;;3.73;3.47;;;;;;;13.46;62.06;98665.97;4963981;28;20322;-68
2021/05/29 08:20:55;;;;;;;4.10;3.70;;;;;;;13.12;63.51;98665.06;4964149;28;20206;-68
2021/05/29 08:23:22;;;;;;;3.67;3.40;;;;;;;13.26;64.05;98671.56;4965539;28;20234;-69
2021/05/29 08:25:50;;;;;;;4.80;3.40;;;;;;;13.37;63.07;98667.75;4965001;28;20205;-68
2021/05/29 08:28:17;;;;;;;3.47;3.17;;;;;;;13.40;62.52;98680.75;4963729;28;20213;-68
2021/05/29 08:30:46;;;;;;;3.57;3.37;;;;;;;13.22;62.01;98677.38;4965685;28;20217;-69
2021/05/29 08:33:13;;;;;;;3.00;2.80;;;;;;;13.01;62.55;98684.81;4962763;28;20261;-67
2021/05/29 08:35:41;;;;;;;3.13;3.03;;;;;;;12.93;62.63;98687.47;4964254;28;20198;-69
2021/05/29 08:38:08;;;;;;;3.63;3.13;;;;;;;13.03;61.61;98680.16;4962587;28;20265;-68
2021/05/29 08:40:36;;;;;;;2.80;2.60;;;;;;;13.18;63.29;98674.22;4963367;28;20209;-69
2021/05/29 08:43:04;;;;;;;2.87;2.67;;;;;;;13.52;61.13;98675.97;4962723;28;20249;-69
2021/05/29 08:45:31;;;;;;;2.80;2.60;;;;;;;13.64;58.66;98679.13;4965292;28;20202;-71
2021/05/29 08:47:59;;;;;;;2.97;2.77;;;;;;;13.58;59.08;98682.44;4963517;28;20198;-68
2021/05/29 08:50:27;;;;;;;2.63;2.43;;;;;;;13.67;59.36;98676.13;4961713;28;20210;-67
2021/05/29 08:52:55;;;;;;;3.23;3.03;;;;;;;13.80;58.62;98683.59;4962563;28;20218;-67
2021/05/29 08:55:23;;;;;;;6.30;2.07;;;;;;;14.06;54.95;98687.88;4960124;28;20213;-69
2021/05/29 08:57:51;;;;;;;1.83;1.73;;;;;;;14.26;52.15;98690.19;4961230;28;20222;-69
2021/05/29 09:00:21;;;;;;;2.20;2.10;;;;;;;14.38;53.01;98685.31;4959271;28;20212;-69
2021/05/29 09:02:56;;;;;;;2.97;1.80;;;;;;;14.64;53.22;98677.06;4963646;28;20209;-69
2021/05/29 09:05:35;;;;;;;2.67;2.47;;;;;;;14.59;51.04;98685.56;4965695;28;20214;-69
2021/05/29 09:08:05;;;;;;;2.10;2.00;;;;;;;14.62;52.44;98685.22;4962754;28;20213;-69
2021/05/29 09:10:35;;;;;;;2.20;2.10;;;;;;;14.07;52.63;98680.75;4962020;28;20214;-67
2021/05/29 09:13:06;;;;;;;2.37;2.17;;;;;;;14.09;54.32;98682.22;4959435;28;20431;-66
2021/05/29 09:15:41;;;;;;;1.87;1.87;;;;;;;14.06;54.95;98682.56;4966210;28;20206;-68
2021/05/29 09:18:08;;;;;;;2.70;2.20;;;;;;;14.18;55.04;98683.84;4968575;28;20237;-70
2021/05/29 09:20:37;;;;;;;2.63;2.30;;;;;;;14.22;54.58;98687.03;4970790;28;20214;-72
2021/05/29 09:23:04;;;;;;;2.27;2.17;;;;;;;14.56;53.25;98680.59;4967201;28;20229;-72
2021/05/29 09:25:34;;;;;;;2.20;2.03;;;;;;;14.87;52.42;98681.63;4966790;28;20654;-71
2021/05/29 09:28:03;;;;;;;2.50;2.40;;;;;;;15.28;51.43;98681.38;4968257;28;20209;-72
2021/05/29 09:30:40;;;;;;;2.53;2.33;;;;;;;15.56;50.68;98688.06;4973782;28;20229;-70
2021/05/29 09:33:19;;;;;;;2.03;1.83;;;;;;;15.66;49.88;98685.09;4967656;28;20226;-72
2021/05/29 09:35:49;;;;;;;2.40;2.20;;;;;;;15.67;48.85;98674.25;4967549;28;20206;-69
2021/05/29 09:38:17;;;;;;;1.93;1.83;;;;;;;15.40;49.26;98683.66;4966446;28;20230;-71
2021/05/29 09:40:52;;;;;;;2.17;2.07;;;;;;;14.79;51.59;98690.53;4967613;28;20210;-71
2021/05/29 09:43:20;;;;;;;2.10;1.90;;;;;;;14.37;50.44;98687.16;4968793;28;20601;-73
2021/05/29 09:45:58;;;;;;;1.80;1.70;;;;;;;14.93;50.53;98683.59;4966711;28;20209;-71
2021/05/29 09:48:25;;;;;;;1.80;1.70;;;;;;;15.31;47.56;98677.53;4965079;28;20206;-70
2021/05/29 09:51:02;;;;;;;1.60;1.50;;;;;;;15.54;49.82;98674.03;4965597;28;20222;-72
2021/05/29 09:53:31;;;;;;;0.93;0.93;;;;;;;15.07;45.92;98678.53;4965479;28;20218;-71
2021/05/29 09:55:59;;;;;;;1.30;1.00;;;;;;;15.64;47.75;98671.94;4970746;28;20214;-71
2021/05/29 09:58:58;;;;;;;1.30;1.20;;;;;;;16.01;44.73;98674.81;4968151;28;20784;-73
2021/05/29 10:01:40;;;;;;;1.37;1.33;;;;;;;16.02;45.36;98669.28;4952974;28;20553;-72
2021/05/29 10:04:09;;;;;;;1.40;1.30;;;;;;;15.74;44.84;98672.53;4966398;28;20226;-74
2021/05/29 10:06:38;;;;;;;1.70;1.60;;;;;;;15.12;45.60;98682.31;4967304;28;20214;-72
2021/05/29 10:09:06;;;;;;;1.20;1.13;;;;;;;15.22;44.93;98676.75;4968111;28;20202;-75
2021/05/29 10:11:36;;;;;;;1.33;1.33;;;;;;;15.36;45.76;98669.81;4967362;28;20214;-73
2021/05/29 10:14:05;;;;;;;1.43;1.30;;;;;;;15.49;47.15;98669.22;4966751;28;20317;-73
2021/05/29 10:16:34;;;;;;;1.70;1.60;;;;;;;15.79;46.53;98672.00;4965668;28;20210;-74
2021/05/29 10:19:02;;;;;;;2.00;1.40;;;;;;;16.05;47.21;98665.41;4970602;28;20630;-74
2021/05/29 10:21:31;;;;;;;1.10;1.10;;;;;;;16.16;42.00;98675.66;4966784;28;20207;-75
2021/05/29 10:24:01;;;;;;;1.23;1.20;;;;;;;16.07;43.14;98666.03;4967537;28;20217;-72
2021/05/29 10:26:29;;;;;;;1.30;1.23;;;;;;;15.99;43.28;98671.47;4966680;28;20288;-72
2021/05/29 10:28:57;;;;;;;1.63;1.43;;;;;;;16.11;43.31;98663.84;4964515;28;20560;-72
2021/05/29 10:31:30;;;;;;;1.50;1.40;;;;;;;16.37;42.35;98665.25;4965753;28;20804;-72
2021/05/29 10:33:57;;;;;;;1.13;1.13;;;;;;;15.84;44.09;98661.59;4966570;28;20285;-73
2021/05/29 10:36:44;;;;;;;2.57;1.50;;;;;;;15.95;43.03;98663.00;4965306;28;20257;-71
2021/05/29 10:39:20;;;;;;;1.30;1.30;;;;;;;16.15;43.16;98657.13;4961919;28;20840;-70
2021/05/29 10:42:00;;;;;;;1.20;1.20;;;;;;;16.33;42.12;98662.94;4961889;28;20221;-72
2021/05/29 10:44:38;;;;;;;1.80;1.40;;;;;;;16.37;44.87;98658.03;4960976;28;20253;-72
2021/05/29 10:47:15;;;;;;;1.50;1.40;;;;;;;16.33;43.06;98656.75;4962580;28;20237;-72
2021/05/29 10:49:55;;;;;;;1.43;1.43;;;;;;;16.06;45.13;98645.66;4956871;28;20493;-72
2021/05/29 10:52:53;;;;;;;2.07;1.73;;;;;;;16.35;45.07;98652.88;4963901;28;20602;-72
2021/05/29 10:55:26;;;;;;;2.43;1.77;;;;;;;16.22;44.48;98657.22;4967936;28;20213;-72
2021/05/29 10:57:55;;;;;;;1.83;1.73;;;;;;;15.98;45.06;98651.97;4966334;28;20234;-70
2021/05/29 11:00:51;;;;;;;1.70;1.60;;;;;;;16.16;44.59;98653.44;4966614;28;20674;-72
2021/05/29 11:03:29;;;;;;;1.13;1.13;;;;;;;16.31;43.42;98650.75;4968083;28;20237;-72
2021/05/29 11:06:00;;;;;;;2.57;1.33;;;;;;;16.14;43.03;98652.78;4964478;28;20217;-72
2021/05/29 11:08:51;;;;;;;1.73;1.60;;;;;;;16.53;43.65;98658.88;4965722;28;20319;-71
2021/05/29 11:11:57;;;;;;;2.67;1.60;;;;;;;17.18;40.08;98651.81;4965226;28;20591;-72
2021/05/29 11:14:26;;;;;;;1.80;1.37;;;;;;;17.53;40.00;98645.72;4965990;28;20277;-71
2021/05/29 11:17:12;;;;;;;0.97;0.97;;;;;;;18.56;36.77;98639.00;4965625;28;20217;-72
2021/05/29 11:19:59;;;;;;;1.30;1.20;;;;;;;18.94;35.77;98635.00;4970311;28;20612;-72
2021/05/29 11:22:27;;;;;;;1.40;1.37;;;;;;;18.11;38.32;98634.03;4965460;28;20229;-72
2021/05/29 11:24:59;;;;;;;1.23;1.23;;;;;;;19.39;38.28;98621.03;4962639;28;20238;-72
2021/05/29 11:27:30;;;;;;;0.90;0.90;;;;;;;19.32;39.05;98618.34;4965422;28;20209;-73
2021/05/29 11:30:00;;;;;;;1.47;1.37;;;;;;;20.11;37.62;98628.44;4965361;28;20237;-69
2021/05/29 11:32:43;;;;;;;1.10;1.10;;;;;;;18.57;36.73;98635.28;4965111;28;20206;-70
2021/05/29 11:35:41;;;;;;;1.07;1.07;;;;;;;17.87;38.05;98629.94;4964154;28;20210;-70
2021/05/29 11:38:13;;;;;;;2.70;1.40;;;;;;;17.98;39.29;98624.00;4965791;28;20230;-72
2021/05/29 11:40:53;;;;;;;2.00;1.07;;;;;;;18.69;38.93;98618.59;4963640;28;20511;-72
2021/05/29 11:43:33;;;;;;;1.23;1.13;;;;;;;18.98;36.50;98625.53;4961363;28;20248;-73
2021/05/29 11:46:01;;;;;;;1.43;1.33;;;;;;;19.70;36.25;98621.44;4961728;28;20211;-71
2021/05/29 11:48:34;;;;;;;1.30;1.30;;;;;;;19.90;36.30;98611.53;4963573;28;20687;-68
2021/05/29 11:51:12;;;;;;;1.20;1.20;;;;;;;19.86;35.12;98623.69;4963780;28;20297;-68
2021/05/29 11:53:42;;;;;;;1.33;1.23;;;;;;;18.58;36.16;98614.63;4963018;28;20623;-65
2021/05/29 11:56:10;;;;;;;1.20;1.20;;;;;;;18.51;37.02;98618.13;4964270;28;20733;-67